Pagrindinis puslapis
METAR-TAF:

METAR-TAF

Oro uostai :

Porto Alegrė, Pietų Rio Grandė, Brazilija

platuma: 30-00S, ilguma: 051-11W, Aukštis: 3 m

Dabartinis oras

Ataskaita buvo paskelbta 44 minutes, ne 10:00 UTC
Vėjas 3 kt iš Vakarų/Šiaurės Vakarų
Temperatūra 13°C
Drėgmė 100%
Slėgis 1014 hPa
Matomumas 10 km arba daugiau
nėra debesų žemiau 1500 m ir nėra kamuolinių lietaus debesų

METAR: SBPA 311000Z 29003KT CAVOK 13/13 Q1014

Laikas: 07:44 (10:44 UTC)

Prognozė

Ataskaita buvo paskelbta 7 valandos ir 44 minutes, ne 03:00 UTC
Prognozė galioja nuo 31 metu 06 UTC su 01 metu 06 UTC
Vėjas 5 kt iš Rytų
Matomumas: 6000 m
Tikimybė 40%
nuo 31 metu 08 UTC su 31 metu 11 UTC
Matomumas: 0800 m
Su prošvaistėmis ne aukštis 200 ft
rūkas
Tapsmas
nuo 31 metu 11 UTC su 31 metu 13 UTC
Matomumas 10 km arba daugiau
nėra debesų žemiau 1500 m ir nėra kamuolinių lietaus debesų

TAF: SBPA 310300Z 3106/0106 10005KT 6000 NSC TN09/3108Z TX24/3118Z PROB40 3108/3111 0800 FG BKN002 BECMG 3111/3113 CAVOK RMK PDG

Orai ataskaitas ir orų prognozės (METAR, TAF).

turimą stotys yra geltonos ir raudonos taškus žemėlapyje.

Perkelti pele per norėdami pamatyti stoties vardą.

Tada spustelėkite, norėdami matyti oro stebėjimo ir prognozės.

Norėdami pakeisti žemėlapį: spustelėkite ant žalios mygtukų su juodo kryžiaus žemyn,; žalią mygtuką su brūkšneliu, jei norite nutolinti; arba žalių rodyklių gretimoms žemėlapius.


METAR-TAF: